Time;durP1;ratioP1;P1;durP2;ratioP2;P2;SDS_P1;SDS_P2;PMS_P1;PMS_P2;Temp;Humidity;BMP_temperature;BMP_pressure;BME280_temperature;BME280_humidity;BME280_pressure;Samples;Min_cycle;Max_cycle;Signal;HPM_P1;HPM_P2
2023/10/30 00:01:50;;;;;;;108.63;25.03;;;6.20;99.90;;;;;;5127630;27;21002;-81
2023/10/30 00:04:17;;;;;;;66.57;29.03;;;6.00;99.90;;;;;;5113943;27;20507;-81
2023/10/30 00:06:43;;;;;;;61.80;26.63;;;5.80;99.90;;;;;;5121498;27;20531;-82
2023/10/30 00:09:10;;;;;;;95.53;29.63;;;5.70;99.90;;;;;;5122679;27;20876;-81
2023/10/30 00:11:37;;;;;;;147.37;36.67;;;5.80;99.90;;;;;;5116163;27;20541;-82
2023/10/30 00:14:05;;;;;;;124.20;31.70;;;5.80;99.90;;;;;;5121972;27;20461;-81
2023/10/30 00:16:32;;;;;;;145.87;43.80;;;5.80;99.90;;;;;;5124074;27;20759;-82
2023/10/30 00:19:02;;;;;;;133.20;41.33;;;5.90;99.90;;;;;;5123737;27;20540;-82
2023/10/30 00:21:29;;;;;;;133.67;41.20;;;6.00;99.90;;;;;;5118887;27;20560;-82
2023/10/30 00:23:56;;;;;;;124.33;33.37;;;6.00;99.90;;;;;;5134550;27;20507;-82
2023/10/30 00:26:23;;;;;;;133.43;34.93;;;6.00;99.90;;;;;;5117345;27;20876;-81
2023/10/30 00:28:51;;;;;;;82.50;29.43;;;6.10;99.90;;;;;;5121770;27;20939;-81
2023/10/30 00:31:18;;;;;;;48.70;21.83;;;6.10;99.90;;;;;;5118900;27;20470;-81
2023/10/30 00:33:45;;;;;;;76.40;29.60;;;6.00;99.90;;;;;;5128064;27;20949;-81
2023/10/30 00:36:14;;;;;;;51.27;20.00;;;5.80;99.90;;;;;;5108174;27;20477;-82
2023/10/30 00:38:40;;;;;;;34.50;21.27;;;5.80;99.90;;;;;;5114661;27;20438;-82
2023/10/30 00:41:10;;;;;;;37.13;18.13;;;5.70;99.90;;;;;;5117378;27;20512;-81
2023/10/30 00:43:37;;;;;;;60.77;21.27;;;5.80;99.90;;;;;;5115256;27;20460;-82
2023/10/30 00:46:06;;;;;;;62.87;26.57;;;5.70;99.90;;;;;;5118204;27;20519;-82
2023/10/30 00:48:33;;;;;;;51.63;24.33;;;5.70;99.90;;;;;;5109846;27;20493;-82
2023/10/30 00:51:00;;;;;;;32.30;19.27;;;5.70;99.90;;;;;;5114129;27;20469;-82
2023/10/30 00:53:29;;;;;;;23.83;17.00;;;5.70;99.90;;;;;;5117994;27;20924;-82
2023/10/30 00:55:56;;;;;;;23.87;17.03;;;5.80;99.90;;;;;;5114667;27;20472;-82
2023/10/30 00:58:23;;;;;;;33.53;18.30;;;5.80;99.90;;;;;;5111019;27;20444;-82
2023/10/30 01:00:50;;;;;;;21.97;16.43;;;5.80;99.90;;;;;;5111581;27;20458;-82
2023/10/30 01:03:19;;;;;;;22.13;14.23;;;5.90;99.90;;;;;;5128449;27;20449;-82
2023/10/30 01:05:47;;;;;;;22.80;16.73;;;5.90;99.90;;;;;;5111578;27;20493;-82
2023/10/30 01:08:14;;;;;;;28.10;17.37;;;5.90;99.90;;;;;;5114037;27;21045;-82
2023/10/30 01:10:42;;;;;;;27.33;17.00;;;5.90;99.90;;;;;;5125644;27;20504;-81
2023/10/30 01:13:10;;;;;;;21.47;15.80;;;6.00;99.90;;;;;;5120289;27;20768;-82
2023/10/30 01:15:37;;;;;;;22.90;16.27;;;6.00;99.90;;;;;;5110065;27;20464;-82
2023/10/30 01:18:04;;;;;;;27.67;17.80;;;6.10;99.90;;;;;;5125800;27;20453;-82
2023/10/30 01:20:31;;;;;;;35.73;20.83;;;6.10;99.90;;;;;;5114949;27;20469;-82
2023/10/30 01:22:58;;;;;;;84.00;26.77;;;6.10;99.90;;;;;;5119374;27;20550;-82
2023/10/30 01:25:25;;;;;;;66.47;25.57;;;5.90;99.90;;;;;;5104019;27;20778;-82
2023/10/30 01:27:53;;;;;;;56.77;21.60;;;5.90;99.90;;;;;;5114281;27;20498;-82
2023/10/30 01:30:20;;;;;;;83.27;30.10;;;5.90;99.90;;;;;;5123684;27;20514;-82
2023/10/30 01:32:47;;;;;;;145.53;38.73;;;5.90;99.90;;;;;;5131376;27;20789;-82
2023/10/30 01:35:14;;;;;;;85.70;31.23;;;5.90;99.90;;;;;;5116108;27;20453;-82
2023/10/30 01:37:40;;;;;;;60.33;26.57;;;5.90;99.90;;;;;;5109399;27;20492;-82
2023/10/30 01:40:08;;;;;;;131.67;37.93;;;6.00;99.90;;;;;;5109998;27;20919;-82
2023/10/30 01:42:35;;;;;;;174.93;47.77;;;6.10;99.90;;;;;;5124567;27;20468;-82
2023/10/30 01:45:04;;;;;;;134.77;41.40;;;6.20;99.90;;;;;;5120493;27;20504;-82
2023/10/30 01:47:31;;;;;;;119.80;40.07;;;6.30;99.90;;;;;;5127536;27;21069;-82
2023/10/30 01:50:00;;;;;;;147.13;46.83;;;6.30;99.90;;;;;;5125655;27;20478;-82
2023/10/30 01:52:29;;;;;;;185.30;47.80;;;6.40;99.90;;;;;;5127681;27;20444;-83
2023/10/30 01:54:57;;;;;;;114.03;36.50;;;6.50;99.90;;;;;;5121557;27;20462;-83
2023/10/30 01:57:26;;;;;;;58.67;26.73;;;6.50;99.90;;;;;;5110108;27;20493;-83
2023/10/30 01:59:54;;;;;;;88.40;31.63;;;6.60;99.90;;;;;;5116931;27;20437;-83
2023/10/30 02:02:22;;;;;;;42.60;24.47;;;6.60;99.90;;;;;;5124326;27;20449;-83
2023/10/30 02:04:50;;;;;;;50.33;25.50;;;6.60;99.90;;;;;;5113769;27;20488;-83
2023/10/30 02:07:17;;;;;;;45.57;26.67;;;6.60;99.90;;;;;;5113352;27;20469;-83
2023/10/30 02:09:45;;;;;;;29.00;19.93;;;6.50;99.90;;;;;;5115101;27;20484;-81
2023/10/30 02:12:12;;;;;;;34.97;21.20;;;6.60;99.90;;;;;;5125317;27;20505;-81
2023/10/30 02:14:39;;;;;;;23.73;18.93;;;6.50;99.90;;;;;;5117279;27;21027;-81
2023/10/30 02:17:06;;;;;;;33.00;19.40;;;6.40;99.90;;;;;;5126704;27;20497;-81
2023/10/30 02:19:34;;;;;;;29.30;20.27;;;6.40;99.90;;;;;;5118049;27;21030;-81
2023/10/30 02:22:01;;;;;;;152.67;46.33;;;6.40;99.90;;;;;;5127369;27;20492;-81
2023/10/30 02:24:28;;;;;;;161.10;45.27;;;6.40;99.90;;;;;;5116645;27;20894;-80
2023/10/30 02:26:57;;;;;;;118.53;37.37;;;6.40;99.90;;;;;;5108086;27;20453;-81
2023/10/30 02:29:25;;;;;;;92.83;31.50;;;6.40;99.90;;;;;;5119561;27;20492;-80
2023/10/30 02:31:52;;;;;;;133.10;36.63;;;6.30;99.90;;;;;;5116489;27;20464;-81
2023/10/30 02:34:19;;;;;;;118.30;35.57;;;6.20;99.90;;;;;;5121985;27;20545;-80
2023/10/30 02:36:46;;;;;;;122.53;41.60;;;6.10;99.90;;;;;;5117938;27;20525;-80
2023/10/30 02:39:13;;;;;;;107.17;36.57;;;6.10;99.90;;;;;;5118459;27;20899;-80
2023/10/30 02:41:40;;;;;;;106.17;41.47;;;6.10;99.90;;;;;;5118952;27;20508;-81
2023/10/30 02:44:09;;;;;;;48.03;25.97;;;6.10;99.90;;;;;;5122145;27;20444;-81
2023/10/30 02:46:35;;;;;;;31.63;20.30;;;6.10;99.90;;;;;;5117006;27;20445;-81
2023/10/30 02:49:02;;;;;;;25.33;19.43;;;6.00;99.90;;;;;;5128975;27;20655;-80
2023/10/30 02:51:29;;;;;;;28.20;18.27;;;6.10;99.90;;;;;;5123923;27;20463;-81
2023/10/30 02:53:56;;;;;;;27.00;18.73;;;6.10;99.90;;;;;;5136715;27;21027;-81
2023/10/30 02:56:23;;;;;;;23.53;19.10;;;6.20;99.90;;;;;;5119898;27;20441;-80
2023/10/30 02:58:50;;;;;;;23.73;16.20;;;6.20;99.90;;;;;;5114317;27;20456;-81
2023/10/30 03:01:18;;;;;;;28.33;18.40;;;6.10;99.90;;;;;;5117802;27;20488;-81
2023/10/30 03:03:45;;;;;;;20.33;15.93;;;6.00;99.90;;;;;;5134623;27;20518;-82
2023/10/30 03:06:12;;;;;;;25.20;18.13;;;6.00;99.90;;;;;;5118600;27;20472;-82
2023/10/30 03:08:39;;;;;;;24.63;18.13;;;6.00;99.90;;;;;;5125861;27;20542;-81
2023/10/30 03:11:06;;;;;;;25.17;16.87;;;6.00;99.90;;;;;;5115491;27;20477;-82
2023/10/30 03:13:33;;;;;;;24.17;17.00;;;6.10;99.90;;;;;;5139956;27;20902;-81
2023/10/30 03:16:00;;;;;;;25.77;18.00;;;6.00;99.90;;;;;;5127195;27;20851;-82
2023/10/30 03:18:28;;;;;;;24.23;17.10;;;6.10;99.90;;;;;;5120057;27;20444;-81
2023/10/30 03:20:55;;;;;;;26.70;18.63;;;6.00;99.90;;;;;;5127987;27;20453;-81
2023/10/30 03:23:22;;;;;;;23.43;17.57;;;6.10;99.90;;;;;;5116770;27;20966;-81
2023/10/30 03:25:49;;;;;;;26.37;19.10;;;6.10;99.90;;;;;;5134832;27;20524;-81
2023/10/30 03:28:16;;;;;;;27.10;18.60;;;6.10;99.90;;;;;;5109663;27;20513;-81
2023/10/30 03:30:43;;;;;;;25.60;19.57;;;6.10;99.90;;;;;;5118409;27;20488;-81
2023/10/30 03:33:10;;;;;;;25.40;18.20;;;6.10;99.90;;;;;;5134063;27;20449;-82
2023/10/30 03:35:39;;;;;;;22.47;16.57;;;6.20;99.90;;;;;;5122164;27;20463;-82
2023/10/30 03:38:06;;;;;;;30.17;19.53;;;6.20;99.90;;;;;;5127609;27;20821;-82
2023/10/30 03:40:33;;;;;;;66.63;26.80;;;6.10;99.90;;;;;;5134980;27;20532;-82
2023/10/30 03:43:00;;;;;;;131.03;40.07;;;6.10;99.90;;;;;;5125982;27;20462;-82
2023/10/30 03:45:27;;;;;;;250.80;49.77;;;6.00;99.90;;;;;;5116551;27;20686;-82
2023/10/30 03:47:54;;;;;;;137.43;37.93;;;6.00;99.90;;;;;;5120973;27;20482;-82
2023/10/30 03:50:21;;;;;;;202.50;48.67;;;5.90;99.90;;;;;;5124799;27;20557;-82
2023/10/30 03:52:50;;;;;;;172.60;43.77;;;5.90;99.90;;;;;;5122093;27;20846;-82
2023/10/30 03:55:17;;;;;;;146.03;35.40;;;5.80;99.90;;;;;;5111861;27;20448;-82
2023/10/30 03:57:45;;;;;;;138.37;44.67;;;5.90;99.90;;;;;;5122864;27;20615;-82
2023/10/30 04:00:13;;;;;;;75.23;22.10;;;5.90;99.90;;;;;;5117532;27;20447;-82
2023/10/30 04:02:40;;;;;;;104.83;28.03;;;5.80;99.90;;;;;;5118683;27;20460;-82
2023/10/30 04:05:08;;;;;;;100.00;25.00;;;5.80;99.90;;;;;;5120801;27;20453;-82
2023/10/30 04:07:35;;;;;;;81.93;28.17;;;5.70;99.90;;;;;;5114016;27;20868;-82
2023/10/30 04:10:03;;;;;;;102.93;31.07;;;5.50;99.90;;;;;;5120111;27;20579;-82
2023/10/30 04:12:30;;;;;;;68.67;22.97;;;5.60;99.90;;;;;;5128656;27;20476;-82
2023/10/30 04:14:58;;;;;;;70.13;25.07;;;5.60;99.90;;;;;;5119982;27;20489;-81
2023/10/30 04:17:25;;;;;;;143.60;43.53;;;5.60;99.90;;;;;;5120375;27;20451;-81
2023/10/30 04:19:52;;;;;;;83.20;34.10;;;5.70;99.90;;;;;;5133636;27;20504;-82
2023/10/30 04:22:19;;;;;;;50.10;24.47;;;5.70;99.90;;;;;;5128868;27;20448;-82
2023/10/30 04:24:45;;;;;;;59.43;22.40;;;5.60;99.90;;;;;;5119740;27;20458;-82
2023/10/30 04:27:14;;;;;;;100.87;31.90;;;5.50;99.90;;;;;;5121650;27;21038;-82
2023/10/30 04:29:42;;;;;;;65.90;22.37;;;5.40;99.90;;;;;;5118979;27;20483;-82
2023/10/30 04:32:09;;;;;;;169.27;46.87;;;5.50;99.90;;;;;;5122874;27;20535;-82
2023/10/30 04:34:36;;;;;;;196.60;48.60;;;5.60;99.90;;;;;;5124298;27;20448;-82
2023/10/30 04:37:03;;;;;;;73.77;26.43;;;5.60;99.90;;;;;;5116651;27;20557;-82
2023/10/30 04:39:29;;;;;;;68.93;24.83;;;5.70;99.90;;;;;;5106921;27;20880;-82
2023/10/30 04:41:56;;;;;;;28.87;16.03;;;5.60;99.90;;;;;;5114139;27;20464;-81
2023/10/30 04:44:25;;;;;;;80.13;27.10;;;5.60;99.90;;;;;;5113583;27;20536;-82
2023/10/30 04:46:52;;;;;;;91.00;27.90;;;5.60;99.90;;;;;;5124858;27;20551;-82
2023/10/30 04:49:19;;;;;;;57.37;20.70;;;5.60;99.90;;;;;;5112450;27;20990;-82
2023/10/30 04:51:46;;;;;;;61.70;22.83;;;5.50;99.90;;;;;;5110184;27;20497;-81
2023/10/30 04:54:13;;;;;;;27.93;16.20;;;5.50;99.90;;;;;;5125690;27;20584;-82
2023/10/30 04:56:40;;;;;;;58.73;22.57;;;5.50;99.90;;;;;;5122588;27;20457;-82
2023/10/30 04:59:07;;;;;;;71.03;19.20;;;5.50;99.90;;;;;;5110424;27;20503;-82
2023/10/30 05:01:35;;;;;;;56.30;24.23;;;5.60;99.90;;;;;;5113983;27;20559;-82
2023/10/30 05:04:03;;;;;;;37.93;17.50;;;5.60;99.90;;;;;;5121663;27;20443;-82
2023/10/30 05:06:30;;;;;;;78.73;26.83;;;5.60;99.90;;;;;;5113722;27;20972;-82
2023/10/30 05:08:57;;;;;;;85.83;30.43;;;5.50;99.90;;;;;;5120581;27;20671;-82
2023/10/30 05:11:24;;;;;;;63.77;25.07;;;5.50;99.90;;;;;;5122402;27;20540;-82
2023/10/30 05:13:51;;;;;;;40.10;21.40;;;5.50;99.90;;;;;;5119042;27;20913;-82
2023/10/30 05:16:18;;;;;;;63.07;18.20;;;5.50;99.90;;;;;;5107974;27;20465;-82
2023/10/30 05:18:46;;;;;;;41.73;17.50;;;5.50;99.90;;;;;;5121166;27;20872;-82
2023/10/30 05:21:13;;;;;;;81.20;24.43;;;5.50;99.90;;;;;;5121073;27;20453;-81
2023/10/30 05:23:40;;;;;;;97.50;27.07;;;5.50;99.90;;;;;;5120003;27;21649;-81
2023/10/30 05:26:07;;;;;;;69.30;22.00;;;5.50;99.90;;;;;;5113806;27;20561;-82
2023/10/30 05:28:33;;;;;;;20.77;13.40;;;5.60;99.90;;;;;;5119069;27;20461;-82
2023/10/30 05:31:06;;;;;;;46.33;20.03;;;5.50;99.90;;;;;;5110843;27;20519;-81
2023/10/30 05:33:34;;;;;;;23.63;15.40;;;5.50;99.90;;;;;;5110153;27;20824;-82
2023/10/30 05:36:02;;;;;;;44.63;20.63;;;5.50;99.90;;;;;;5123902;27;20463;-83
2023/10/30 05:38:29;;;;;;;66.37;27.13;;;5.40;99.90;;;;;;5123598;27;20509;-81
2023/10/30 05:40:56;;;;;;;46.20;20.67;;;5.50;99.90;;;;;;5120334;27;20460;-81
2023/10/30 05:43:23;;;;;;;45.87;18.17;;;5.60;99.90;;;;;;5117345;27;20463;-81
2023/10/30 05:45:50;;;;;;;48.03;20.17;;;5.70;99.90;;;;;;5112182;27;20552;-81
2023/10/30 05:48:17;;;;;;;18.87;14.10;;;5.70;99.90;;;;;;5106400;27;20468;-82
2023/10/30 05:50:44;;;;;;;28.93;17.50;;;5.70;99.90;;;;;;5107852;27;21038;-82
2023/10/30 05:53:13;;;;;;;23.83;16.57;;;5.70;99.90;;;;;;5117209;27;20486;-81
2023/10/30 05:55:40;;;;;;;30.33;19.57;;;5.70;99.90;;;;;;5110954;27;20468;-81
2023/10/30 05:58:07;;;;;;;96.57;40.40;;;5.70;99.90;;;;;;5104394;27;20480;-81
2023/10/30 06:00:33;;;;;;;35.60;18.83;;;5.80;99.90;;;;;;5119435;27;20544;-81
2023/10/30 06:03:00;;;;;;;39.10;19.60;;;5.80;99.90;;;;;;5114540;27;20461;-81
2023/10/30 06:05:27;;;;;;;29.07;18.03;;;5.90;99.90;;;;;;5106849;27;20466;-81
2023/10/30 06:07:54;;;;;;;27.10;16.13;;;5.90;99.90;;;;;;5104179;27;20464;-81
2023/10/30 06:10:23;;;;;;;31.60;19.07;;;5.80;99.90;;;;;;5108965;27;20567;-81
2023/10/30 06:12:50;;;;;;;17.40;13.40;;;5.80;99.90;;;;;;5125174;27;20476;-82
2023/10/30 06:15:17;;;;;;;17.03;14.63;;;5.90;99.90;;;;;;5119498;27;20812;-82
2023/10/30 06:17:45;;;;;;;19.63;13.60;;;5.90;99.90;;;;;;5134083;27;20497;-82
2023/10/30 06:20:12;;;;;;;13.00;11.60;;;6.00;99.90;;;;;;5115851;27;20475;-82
2023/10/30 06:22:39;;;;;;;29.57;15.90;;;6.00;99.90;;;;;;5122900;27;20459;-81
2023/10/30 06:25:07;;;;;;;17.97;12.80;;;6.00;99.90;;;;;;5112480;27;20513;-81
2023/10/30 06:27:35;;;;;;;17.47;12.17;;;6.00;99.90;;;;;;5105378;27;20834;-81
2023/10/30 06:30:02;;;;;;;31.43;16.20;;;6.10;99.90;;;;;;5113370;27;20560;-81
2023/10/30 06:32:30;;;;;;;18.60;13.90;;;6.20;99.90;;;;;;5113115;27;20504;-81
2023/10/30 06:34:57;;;;;;;19.43;14.33;;;6.20;99.90;;;;;;5110303;27;20468;-81
2023/10/30 06:37:24;;;;;;;27.60;16.00;;;6.10;99.90;;;;;;5110512;27;20470;-81
2023/10/30 06:39:50;;;;;;;33.70;19.20;;;6.10;99.90;;;;;;5128630;27;20446;-82
2023/10/30 06:42:18;;;;;;;43.77;19.17;;;6.20;99.90;;;;;;5118889;27;20464;-81
2023/10/30 06:44:46;;;;;;;49.33;21.90;;;6.30;99.90;;;;;;5114714;27;20468;-81
2023/10/30 06:47:13;;;;;;;45.90;20.60;;;6.40;99.90;;;;;;5117658;27;20489;-81
2023/10/30 06:49:40;;;;;;;48.53;22.40;;;6.30;99.90;;;;;;5122901;27;20858;-81
2023/10/30 06:52:07;;;;;;;38.23;19.60;;;6.20;99.90;;;;;;5119246;27;20761;-81
2023/10/30 06:54:34;;;;;;;24.03;17.50;;;6.40;99.90;;;;;;5115911;27;20571;-81
2023/10/30 06:57:01;;;;;;;20.73;16.47;;;6.40;99.90;;;;;;5125477;27;20517;-81
2023/10/30 06:59:28;;;;;;;45.93;21.57;;;6.60;99.90;;;;;;5114025;27;20464;-81
2023/10/30 07:01:56;;;;;;;21.60;16.00;;;6.60;99.90;;;;;;5121529;27;20466;-81
2023/10/30 07:04:24;;;;;;;19.07;15.10;;;6.70;99.90;;;;;;5111736;27;20465;-81
2023/10/30 07:06:51;;;;;;;19.53;15.13;;;6.60;99.90;;;;;;5117637;27;20560;-81
2023/10/30 07:09:19;;;;;;;27.30;16.60;;;6.60;99.90;;;;;;5121561;27;20462;-81
2023/10/30 07:11:46;;;;;;;53.43;22.87;;;6.60;99.90;;;;;;5110988;27;20492;-81
2023/10/30 07:14:13;;;;;;;74.17;29.97;;;6.50;99.90;;;;;;5116967;27;20460;-81
2023/10/30 07:16:41;;;;;;;164.97;38.03;;;6.50;99.90;;;;;;5122036;27;20950;-81
2023/10/30 07:19:09;;;;;;;91.93;29.47;;;6.50;99.90;;;;;;5114838;27;20458;-81
2023/10/30 07:21:36;;;;;;;94.17;30.50;;;6.50;99.90;;;;;;5117612;27;20572;-81
2023/10/30 07:24:04;;;;;;;26.20;17.67;;;6.60;99.90;;;;;;5118319;27;20544;-81
2023/10/30 07:26:31;;;;;;;20.23;13.83;;;6.60;99.90;;;;;;5117542;27;20546;-81
2023/10/30 07:28:58;;;;;;;18.83;15.17;;;6.80;99.90;;;;;;5110786;27;20910;-81
2023/10/30 07:31:25;;;;;;;31.20;18.37;;;6.90;99.90;;;;;;5105822;27;20549;-81
2023/10/30 07:33:52;;;;;;;34.33;18.13;;;7.10;99.90;;;;;;5110790;27;20863;-81
2023/10/30 07:36:20;;;;;;;23.20;17.10;;;7.10;99.90;;;;;;5104902;27;20468;-81
2023/10/30 07:38:48;;;;;;;39.13;20.53;;;7.10;99.90;;;;;;5120829;27;20938;-81
2023/10/30 07:41:15;;;;;;;73.07;28.27;;;7.10;99.90;;;;;;5120671;27;20468;-81
2023/10/30 07:43:42;;;;;;;114.83;34.33;;;7.20;99.90;;;;;;5117746;27;20960;-82
2023/10/30 07:46:13;;;;;;;134.60;39.73;;;7.10;99.90;;;;;;5124505;27;20492;-81
2023/10/30 07:48:40;;;;;;;103.17;33.87;;;7.10;99.90;;;;;;5122190;27;20454;-82
2023/10/30 07:51:07;;;;;;;94.63;29.10;;;7.10;99.90;;;;;;5123435;27;20681;-82
2023/10/30 07:53:35;;;;;;;60.27;24.93;;;6.90;99.90;;;;;;5114852;27;20718;-82
2023/10/30 07:56:02;;;;;;;100.43;34.53;;;7.00;99.90;;;;;;5113604;27;20844;-83
2023/10/30 07:58:29;;;;;;;107.27;33.97;;;7.10;99.90;;;;;;5123682;27;20572;-83
2023/10/30 08:00:57;;;;;;;70.60;27.00;;;7.10;99.90;;;;;;5116296;27;20514;-82
2023/10/30 08:03:24;;;;;;;128.60;42.60;;;7.00;99.90;;;;;;5118371;27;20489;-82
2023/10/30 08:05:51;;;;;;;46.40;22.17;;;7.10;99.90;;;;;;5122383;27;20521;-81
2023/10/30 08:08:18;;;;;;;150.47;39.80;;;7.10;99.90;;;;;;5126586;27;20782;-81
2023/10/30 08:10:48;;;;;;;34.37;18.57;;;7.10;99.90;;;;;;5115106;27;21015;-82
2023/10/30 08:13:15;;;;;;;59.50;25.63;;;7.30;99.90;;;;;;5125836;27;20936;-81
2023/10/30 08:15:42;;;;;;;50.07;20.37;;;7.40;99.90;;;;;;5113227;27;20451;-81
2023/10/30 08:18:09;;;;;;;121.20;37.07;;;7.70;99.90;;;;;;5120983;27;20817;-81
2023/10/30 08:20:36;;;;;;;102.00;32.07;;;7.90;99.90;;;;;;5124207;27;20441;-81
2023/10/30 08:23:03;;;;;;;89.67;32.17;;;8.00;99.90;;;;;;5115614;27;20535;-81
2023/10/30 08:25:30;;;;;;;43.20;20.50;;;8.00;99.90;;;;;;5118726;27;20489;-81
2023/10/30 08:28:00;;;;;;;47.33;20.40;;;8.10;99.90;;;;;;5128413;27;20465;-81
2023/10/30 08:30:27;;;;;;;46.13;23.20;;;8.20;99.90;;;;;;5107995;27;20481;-81
2023/10/30 08:32:53;;;;;;;36.87;21.07;;;8.10;99.90;;;;;;5111609;27;20456;-80
2023/10/30 08:35:20;;;;;;;25.53;16.37;;;8.30;99.90;;;;;;5108359;27;20619;-81
2023/10/30 08:37:47;;;;;;;62.10;24.20;;;8.40;99.90;;;;;;5108758;27;20457;-81
2023/10/30 08:40:14;;;;;;;82.63;28.97;;;8.50;99.90;;;;;;5138384;27;20497;-81
2023/10/30 08:42:41;;;;;;;43.20;19.90;;;8.60;99.90;;;;;;5121513;27;20452;-80
2023/10/30 08:45:10;;;;;;;55.97;18.80;;;8.40;99.90;;;;;;5133309;27;20437;-80
2023/10/30 08:47:38;;;;;;;65.77;21.83;;;8.50;99.90;;;;;;5126456;27;20796;-80
2023/10/30 08:50:07;;;;;;;45.67;18.47;;;8.80;99.90;;;;;;5113669;27;20605;-80
2023/10/30 08:52:34;;;;;;;29.47;17.07;;;8.90;99.90;;;;;;5115731;27;20458;-81
2023/10/30 08:55:01;;;;;;;34.07;17.70;;;8.90;99.90;;;;;;5116305;27;20823;-80
2023/10/30 08:57:28;;;;;;;40.87;17.40;;;9.00;99.90;;;;;;5111087;27;20442;-80
2023/10/30 08:59:54;;;;;;;37.43;15.57;;;9.10;99.90;;;;;;5107871;27;20542;-80
2023/10/30 09:02:23;;;;;;;48.27;18.80;;;8.70;99.90;;;;;;5106695;27;20827;-80
2023/10/30 09:04:50;;;;;;;19.67;13.90;;;8.80;99.90;;;;;;5123618;27;20461;-80
2023/10/30 09:07:17;;;;;;;18.33;12.93;;;9.00;99.90;;;;;;5116210;27;21000;-80
2023/10/30 09:09:44;;;;;;;56.27;19.30;;;9.30;99.90;;;;;;5102227;27;20466;-81
2023/10/30 09:12:11;;;;;;;22.17;14.80;;;9.40;99.90;;;;;;5107305;27;20521;-80
2023/10/30 09:14:38;;;;;;;29.60;13.63;;;9.40;99.90;;;;;;5118346;27;20521;-80
2023/10/30 09:17:08;;;;;;;16.17;12.13;;;9.20;99.90;;;;;;5115545;27;20505;-81
2023/10/30 09:19:36;;;;;;;17.50;13.33;;;9.30;99.90;;;;;;5108163;27;20456;-81
2023/10/30 09:22:03;;;;;;;22.33;12.70;;;9.30;99.90;;;;;;5112350;27;21389;-80
2023/10/30 09:24:30;;;;;;;32.43;14.87;;;9.50;99.90;;;;;;5107772;27;20461;-80
2023/10/30 09:26:57;;;;;;;16.67;12.03;;;9.40;99.90;;;;;;5104277;27;20454;-80
2023/10/30 09:29:25;;;;;;;19.03;14.77;;;9.50;99.90;;;;;;5104509;27;20469;-80
2023/10/30 09:31:52;;;;;;;14.53;13.00;;;9.90;99.90;;;;;;5103416;27;20569;-80
2023/10/30 09:34:19;;;;;;;18.53;13.70;;;10.30;99.90;;;;;;5111770;27;20442;-80
2023/10/30 09:36:47;;;;;;;15.47;12.33;;;10.60;99.90;;;;;;5117226;27;20529;-80
2023/10/30 09:39:14;;;;;;;23.40;15.00;;;10.70;99.90;;;;;;5109103;27;20470;-80
2023/10/30 09:41:43;;;;;;;17.00;13.40;;;10.40;99.90;;;;;;5104387;27;20445;-79
2023/10/30 09:44:11;;;;;;;13.37;11.73;;;10.10;99.90;;;;;;5113665;27;20880;-80
2023/10/30 09:46:39;;;;;;;15.20;11.13;;;10.30;99.90;;;;;;5118599;27;20485;-80
2023/10/30 09:49:08;;;;;;;12.63;10.37;;;10.20;99.90;;;;;;5115553;27;20782;-80
2023/10/30 09:51:38;;;;;;;10.97;9.83;;;10.40;99.90;;;;;;5112276;27;20500;-80
2023/10/30 09:54:07;;;;;;;13.13;11.17;;;10.50;99.90;;;;;;5134516;27;20459;-79
2023/10/30 09:56:35;;;;;;;12.30;10.30;;;10.60;99.90;;;;;;5111621;27;20540;-80
2023/10/30 09:59:02;;;;;;;21.47;11.37;;;10.90;99.90;;;;;;5115218;27;20538;-80
2023/10/30 10:01:29;;;;;;;12.80;11.10;;;11.20;99.90;;;;;;5110563;27;20921;-79
2023/10/30 10:03:57;;;;;;;13.60;10.03;;;11.30;99.90;;;;;;5116070;27;20498;-81
2023/10/30 10:06:24;;;;;;;40.77;32.77;;;11.60;99.90;;;;;;5111940;27;20478;-81
2023/10/30 10:08:51;;;;;;;12.60;11.00;;;11.60;99.90;;;;;;5114525;27;20450;-80
2023/10/30 10:11:23;;;;;;;11.03;9.80;;;11.80;99.90;;;;;;5114153;27;20880;-80
2023/10/30 10:13:53;;;;;;;9.83;8.83;;;11.90;99.90;;;;;;5121156;27;20525;-80
2023/10/30 10:16:26;;;;;;;9.53;8.50;;;11.80;99.90;;;;;;5116473;27;20558;-80
2023/10/30 10:18:53;;;;;;;8.60;7.47;;;12.00;99.90;;;;;;5112310;27;20442;-81
2023/10/30 10:21:22;;;;;;;10.50;9.47;;;12.00;99.90;;;;;;5117537;27;20921;-80
2023/10/30 10:23:49;;;;;;;9.77;8.83;;;12.00;99.90;;;;;;5122728;27;20497;-81
2023/10/30 10:26:16;;;;;;;8.03;7.23;;;11.90;99.90;;;;;;5111525;27;20481;-80
2023/10/30 10:28:46;;;;;;;7.20;6.57;;;11.60;99.90;;;;;;5106795;27;20787;-80
2023/10/30 10:31:14;;;;;;;7.90;7.20;;;11.60;99.90;;;;;;5108486;27;21056;-81
2023/10/30 10:33:40;;;;;;;8.33;7.23;;;11.70;99.90;;;;;;5112129;27;20532;-81
2023/10/30 10:36:08;;;;;;;8.03;7.33;;;11.80;99.90;;;;;;5108567;27;20540;-81
2023/10/30 10:38:36;;;;;;;9.70;8.03;;;11.70;99.90;;;;;;5122778;27;20525;-79
2023/10/30 10:41:05;;;;;;;9.73;8.80;;;11.60;99.90;;;;;;5127396;27;20445;-79
2023/10/30 10:43:33;;;;;;;8.33;7.53;;;11.50;99.90;;;;;;5127770;27;20467;-79
2023/10/30 10:46:01;;;;;;;9.10;8.27;;;11.60;99.90;;;;;;5132511;27;20878;-79
2023/10/30 10:48:28;;;;;;;8.30;7.57;;;11.70;99.90;;;;;;5118314;27;20957;-79
2023/10/30 10:50:56;;;;;;;9.07;8.07;;;11.50;99.90;;;;;;5123125;27;20867;-80
2023/10/30 10:53:27;;;;;;;8.30;7.50;;;11.40;99.90;;;;;;5130425;27;20505;-81
2023/10/30 10:56:01;;;;;;;11.07;9.53;;;11.40;99.90;;;;;;5123043;27;20525;-81
2023/10/30 10:58:40;;;;;;;14.80;10.10;;;11.30;99.90;;;;;;5113330;27;20442;-80
2023/10/30 11:01:16;;;;;;;10.40;8.37;;;11.40;99.90;;;;;;5128212;27;20888;-81
2023/10/30 11:03:45;;;;;;;10.90;9.80;;;11.40;99.90;;;;;;5111802;27;20556;-81
2023/10/30 11:06:12;;;;;;;12.10;9.43;;;11.10;99.90;;;;;;5121160;27;20541;-81
2023/10/30 11:08:48;;;;;;;11.53;10.10;;;11.30;99.90;;;;;;5114758;27;20920;-81
2023/10/30 11:11:21;;;;;;;26.83;11.40;;;11.60;99.90;;;;;;5130256;27;20969;-81
2023/10/30 11:14:08;;;;;;;11.93;10.20;;;11.60;99.90;;;;;;5120705;27;20465;-81
2023/10/30 11:16:44;;;;;;;10.97;9.37;;;11.60;99.90;;;;;;5129292;27;21251;-80
2023/10/30 11:19:11;;;;;;;9.43;8.10;;;11.50;99.90;;;;;;5125438;27;20524;-81
2023/10/30 11:21:39;;;;;;;9.73;8.80;;;11.70;99.90;;;;;;5119144;27;20516;-81
2023/10/30 11:24:07;;;;;;;10.63;9.70;;;11.90;99.90;;;;;;5138374;27;20916;-81
2023/10/30 11:26:38;;;;;;;9.93;8.93;;;11.90;99.90;;;;;;5123506;27;20963;-80
2023/10/30 11:29:07;;;;;;;7.93;7.20;;;12.00;99.90;;;;;;5122924;27;20498;-81
2023/10/30 11:31:56;;;;;;;9.17;8.27;;;12.50;99.90;;;;;;5121272;27;20526;-81
2023/10/30 11:34:31;;;;;;;9.40;7.60;;;12.80;99.90;;;;;;5121850;27;20457;-81
2023/10/30 11:37:04;;;;;;;7.47;6.77;;;12.70;99.90;;;;;;5121804;27;20458;-81
2023/10/30 11:39:34;;;;;;;6.73;6.00;;;12.70;99.90;;;;;;5122422;27;20467;-81
2023/10/30 11:42:01;;;;;;;7.07;6.47;;;12.90;99.90;;;;;;5115897;27;20881;-81
2023/10/30 11:44:32;;;;;;;9.07;6.87;;;13.20;99.90;;;;;;5114350;27;20502;-81
2023/10/30 11:47:00;;;;;;;9.23;7.83;;;13.10;99.90;;;;;;5110798;27;20555;-81
2023/10/30 11:49:32;;;;;;;8.07;7.27;;;13.30;99.90;;;;;;5109621;27;20448;-81
2023/10/30 11:51:59;;;;;;;6.33;5.33;;;13.30;99.90;;;;;;5114843;27;20970;-81
2023/10/30 11:54:32;;;;;;;8.50;5.67;;;13.50;99.90;;;;;;5126433;27;20467;-81
2023/10/30 11:57:00;;;;;;;6.43;5.90;;;13.40;99.90;;;;;;5110409;27;20834;-81
2023/10/30 11:59:27;;;;;;;9.33;6.23;;;13.60;99.90;;;;;;5106905;27;20476;-81
2023/10/30 12:01:57;;;;;;;7.50;6.03;;;13.80;99.90;;;;;;5112464;27;20478;-81
2023/10/30 12:04:26;;;;;;;5.77;5.27;;;13.90;99.90;;;;;;5114945;27;20450;-81
2023/10/30 12:06:54;;;;;;;5.40;4.90;;;14.10;99.90;;;;;;5103219;27;20469;-81
2023/10/30 12:09:21;;;;;;;5.03;4.60;;;14.20;99.90;;;;;;5108155;27;20897;-81
2023/10/30 12:11:49;;;;;;;6.30;5.80;;;14.40;99.90;;;;;;5108763;27;20581;-81
2023/10/30 12:14:19;;;;;;;6.57;4.90;;;14.70;99.90;;;;;;5107998;27;20441;-82
2023/10/30 12:16:50;;;;;;;4.67;4.27;;;14.90;99.90;;;;;;5113285;27;20713;-81
2023/10/30 12:19:19;;;;;;;4.90;3.60;;;14.80;99.90;;;;;;5109031;27;20470;-83
2023/10/30 12:21:47;;;;;;;3.43;3.13;;;14.70;99.90;;;;;;5110499;27;21091;-83
2023/10/30 12:24:16;;;;;;;4.80;3.67;;;14.50;99.90;;;;;;5116076;27;20835;-83
2023/10/30 12:26:43;;;;;;;5.97;3.13;;;14.60;99.90;;;;;;5104304;27;20504;-83
2023/10/30 12:29:10;;;;;;;4.60;4.20;;;14.50;99.90;;;;;;5105422;27;20968;-83
2023/10/30 12:31:38;;;;;;;5.93;5.33;;;14.40;99.90;;;;;;5111937;27;20492;-82
2023/10/30 12:34:09;;;;;;;5.40;4.87;;;14.20;99.90;;;;;;5113670;27;20508;-83
2023/10/30 12:36:37;;;;;;;11.73;10.63;;;14.20;99.90;;;;;;5111527;27;20450;-83
2023/10/30 12:39:18;;;;;;;5.23;4.77;;;14.00;99.90;;;;;;5107243;27;21013;-83